Time;durP1;ratioP1;P1;durP2;ratioP2;P2;SDS_P1;SDS_P2;PMS_P1;PMS_P2;Temp;Humidity;BMP_temperature;BMP_pressure;BME280_temperature;BME280_humidity;BME280_pressure;Samples;Min_cycle;Max_cycle;Signal;HPM_P1;HPM_P2
2022/02/23 00:00:41;;;;;;;11.50;3.17;;;;;;;;;;5049296;28;20045;-76
2022/02/23 00:03:07;;;;;;;13.98;3.42;;;;;;;;;;5045610;28;20582;-77
2022/02/23 00:05:34;;;;;;;13.57;3.90;;;;;;;;;;5043729;28;20471;-77
2022/02/23 00:08:00;;;;;;;15.20;4.32;;;;;;;;;;5050098;28;20028;-76
2022/02/23 00:10:26;;;;;;;12.55;3.55;;;;;;;;;;5062774;28;20037;-76
2022/02/23 00:12:52;;;;;;;9.00;4.32;;;;;;;;;;5042249;28;20033;-76
2022/02/23 00:15:18;;;;;;;10.77;3.92;;;;;;;;;;5044378;28;20576;-77
2022/02/23 00:17:44;;;;;;;14.10;3.90;;;;;;;;;;5045391;28;20025;-77
2022/02/23 00:20:11;;;;;;;10.63;4.10;;;;;;;;;;5042873;28;20029;-76
2022/02/23 00:22:37;;;;;;;11.90;4.40;;;;;;;;;;5042047;28;20029;-76
2022/02/23 00:25:03;;;;;;;14.00;4.80;;;;;;;;;;5048309;28;20029;-76
2022/02/23 00:27:30;;;;;;;18.15;4.55;;;;;;;;;;5039350;28;20035;-77
2022/02/23 00:29:56;;;;;;;16.63;4.47;;;;;;;;;;5047327;28;20033;-76
2022/02/23 00:32:22;;;;;;;13.65;3.97;;;;;;;;;;5046259;28;20033;-76
2022/02/23 00:34:48;;;;;;;21.75;4.43;;;;;;;;;;5048219;28;20049;-76
2022/02/23 00:37:15;;;;;;;12.32;3.67;;;;;;;;;;5046950;28;20040;-76
2022/02/23 00:39:41;;;;;;;8.48;3.85;;;;;;;;;;5061048;28;20056;-76
2022/02/23 00:42:07;;;;;;;16.75;4.22;;;;;;;;;;5036902;28;20038;-76
2022/02/23 00:44:34;;;;;;;11.35;3.42;;;;;;;;;;5046420;28;20514;-75
2022/02/23 00:47:00;;;;;;;14.68;4.70;;;;;;;;;;5046505;28;20028;-75
2022/02/23 00:49:26;;;;;;;12.48;4.25;;;;;;;;;;5052690;28;20028;-75
2022/02/23 00:51:53;;;;;;;17.05;4.50;;;;;;;;;;5047846;28;20482;-76
2022/02/23 00:54:19;;;;;;;11.88;3.42;;;;;;;;;;5045726;28;20025;-76
2022/02/23 00:56:48;;;;;;;16.92;3.65;;;;;;;;;;5038657;28;20056;-73
2022/02/23 00:59:15;;;;;;;16.13;3.33;;;;;;;;;;5041127;28;20028;-76
2022/02/23 01:01:41;;;;;;;7.90;2.85;;;;;;;;;;5038551;28;20476;-75
2022/02/23 01:04:08;;;;;;;14.80;4.00;;;;;;;;;;5038789;28;20033;-75
2022/02/23 01:06:34;;;;;;;12.43;3.00;;;;;;;;;;5044610;28;20033;-75
2022/02/23 01:09:00;;;;;;;13.85;3.90;;;;;;;;;;5046314;28;20421;-75
2022/02/23 01:11:27;;;;;;;11.30;2.90;;;;;;;;;;5046972;28;20120;-76
2022/02/23 01:13:53;;;;;;;12.00;3.50;;;;;;;;;;5047703;28;20029;-75
2022/02/23 01:16:19;;;;;;;13.60;3.70;;;;;;;;;;5047290;28;20532;-75
2022/02/23 01:18:45;;;;;;;14.98;3.42;;;;;;;;;;5050272;28;20076;-75
2022/02/23 01:21:11;;;;;;;13.05;3.70;;;;;;;;;;5044329;28;20258;-75
2022/02/23 01:23:37;;;;;;;17.35;3.97;;;;;;;;;;5047637;28;20489;-75
2022/02/23 01:26:04;;;;;;;7.30;3.40;;;;;;;;;;5042762;28;20123;-75
2022/02/23 01:28:30;;;;;;;11.27;3.72;;;;;;;;;;5044719;28;20636;-75
2022/02/23 01:30:57;;;;;;;14.77;4.28;;;;;;;;;;5043652;28;20543;-75
2022/02/23 01:33:23;;;;;;;12.10;3.53;;;;;;;;;;5048143;28;20021;-75
2022/02/23 01:35:49;;;;;;;11.75;4.47;;;;;;;;;;5051491;28;20032;-75
2022/02/23 01:38:15;;;;;;;11.05;3.55;;;;;;;;;;5050558;28;20021;-75
2022/02/23 01:40:42;;;;;;;14.32;4.22;;;;;;;;;;5050558;28;20037;-75
2022/02/23 01:43:08;;;;;;;15.18;3.97;;;;;;;;;;5047043;28;20029;-75
2022/02/23 01:45:34;;;;;;;13.63;4.00;;;;;;;;;;5056646;28;20073;-75
2022/02/23 01:48:00;;;;;;;15.27;2.97;;;;;;;;;;5048940;28;20430;-75
2022/02/23 01:50:26;;;;;;;10.10;2.70;;;;;;;;;;5048902;28;20029;-76
2022/02/23 01:52:52;;;;;;;6.32;2.95;;;;;;;;;;5045684;28;20103;-75
2022/02/23 01:55:19;;;;;;;12.15;3.30;;;;;;;;;;5050279;28;20018;-75
2022/02/23 01:57:45;;;;;;;10.15;3.00;;;;;;;;;;5046419;28;20056;-75
2022/02/23 02:00:12;;;;;;;5.68;2.63;;;;;;;;;;5050263;28;20025;-76
2022/02/23 02:02:38;;;;;;;14.00;3.90;;;;;;;;;;5043292;28;20590;-75
2022/02/23 02:05:05;;;;;;;9.15;3.25;;;;;;;;;;5044022;28;20098;-75
2022/02/23 02:07:31;;;;;;;8.65;3.13;;;;;;;;;;5058589;28;20376;-76
2022/02/23 02:09:57;;;;;;;9.70;2.83;;;;;;;;;;5048825;28;20041;-75
2022/02/23 02:12:24;;;;;;;9.32;3.00;;;;;;;;;;5049623;28;20044;-76
2022/02/23 02:14:50;;;;;;;12.45;3.83;;;;;;;;;;5051649;28;20599;-75
2022/02/23 02:17:17;;;;;;;9.80;3.17;;;;;;;;;;5056414;28;20029;-75
2022/02/23 02:19:43;;;;;;;13.52;4.15;;;;;;;;;;5041721;28;20479;-75
2022/02/23 02:22:09;;;;;;;9.38;3.10;;;;;;;;;;5049605;28;20075;-75
2022/02/23 02:24:36;;;;;;;10.93;3.47;;;;;;;;;;5064039;28;20037;-75
2022/02/23 02:27:04;;;;;;;8.20;3.13;;;;;;;;;;5062837;28;20028;-75
2022/02/23 02:29:31;;;;;;;18.50;3.33;;;;;;;;;;5049555;28;20474;-75
2022/02/23 02:31:57;;;;;;;9.85;3.65;;;;;;;;;;5045906;28;20091;-76
2022/02/23 02:34:24;;;;;;;10.95;3.70;;;;;;;;;;5049451;28;20111;-76
2022/02/23 02:36:50;;;;;;;9.02;3.67;;;;;;;;;;5062988;28;20039;-75
2022/02/23 02:39:20;;;;;;;11.57;3.25;;;;;;;;;;5046052;28;20044;-76
2022/02/23 02:41:47;;;;;;;8.35;2.63;;;;;;;;;;5042388;28;20030;-75
2022/02/23 02:44:13;;;;;;;8.40;3.00;;;;;;;;;;5048280;28;20051;-75
2022/02/23 02:46:39;;;;;;;8.90;3.00;;;;;;;;;;5047996;28;20055;-75
2022/02/23 02:49:05;;;;;;;6.15;2.75;;;;;;;;;;5047308;28;20559;-75
2022/02/23 02:51:31;;;;;;;10.15;2.83;;;;;;;;;;5063533;28;20025;-75
2022/02/23 02:53:58;;;;;;;9.90;3.35;;;;;;;;;;5047922;28;20382;-76
2022/02/23 02:56:24;;;;;;;13.93;3.17;;;;;;;;;;5041476;28;20021;-75
2022/02/23 02:58:52;;;;;;;5.65;3.20;;;;;;;;;;5049273;28;20032;-76
2022/02/23 03:01:25;;;;;;;11.00;2.70;;;;;;;;;;5039521;28;20018;-76
2022/02/23 03:03:51;;;;;;;12.70;4.00;;;;;;;;;;5046719;28;20448;-76
2022/02/23 03:06:18;;;;;;;9.63;2.85;;;;;;;;;;5042638;28;20032;-76
2022/02/23 03:08:45;;;;;;;8.85;2.95;;;;;;;;;;5051440;28;20032;-76
2022/02/23 03:11:12;;;;;;;9.38;3.67;;;;;;;;;;5044341;28;20073;-76
2022/02/23 03:13:38;;;;;;;6.57;3.03;;;;;;;;;;5051496;28;20029;-75
2022/02/23 03:16:05;;;;;;;6.32;3.05;;;;;;;;;;5050008;28;20027;-76
2022/02/23 03:18:31;;;;;;;9.52;4.03;;;;;;;;;;5048771;28;20501;-76
2022/02/23 03:20:57;;;;;;;7.15;2.60;;;;;;;;;;5047837;28;20366;-76
2022/02/23 03:23:23;;;;;;;11.45;2.85;;;;;;;;;;5041405;28;20079;-76
2022/02/23 03:25:50;;;;;;;6.63;2.85;;;;;;;;;;5049246;28;20033;-75
2022/02/23 03:28:16;;;;;;;7.97;3.00;;;;;;;;;;5045621;28;20044;-76
2022/02/23 03:30:42;;;;;;;6.25;3.17;;;;;;;;;;5042604;28;20033;-76
2022/02/23 03:33:09;;;;;;;7.57;2.47;;;;;;;;;;5045983;28;20136;-76
2022/02/23 03:35:36;;;;;;;4.50;2.88;;;;;;;;;;5047952;28;20644;-73
2022/02/23 03:38:02;;;;;;;8.57;2.95;;;;;;;;;;5040907;28;20059;-75
2022/02/23 03:40:28;;;;;;;9.07;2.88;;;;;;;;;;5042241;28;20090;-75
2022/02/23 03:42:55;;;;;;;11.10;2.83;;;;;;;;;;5042520;28;20029;-75
2022/02/23 03:45:21;;;;;;;7.38;2.95;;;;;;;;;;5044978;28;20030;-75
2022/02/23 03:47:47;;;;;;;10.32;3.30;;;;;;;;;;5048415;28;20522;-75
2022/02/23 03:50:14;;;;;;;10.63;2.75;;;;;;;;;;5045202;28;20034;-75
2022/02/23 03:52:41;;;;;;;6.70;2.60;;;;;;;;;;5047376;28;20029;-75
2022/02/23 03:55:07;;;;;;;5.15;2.28;;;;;;;;;;5041167;28;20033;-75
2022/02/23 03:57:33;;;;;;;6.72;2.97;;;;;;;;;;5042783;28;20047;-75
2022/02/23 03:59:59;;;;;;;6.07;2.58;;;;;;;;;;5046862;28;20037;-76
2022/02/23 04:02:25;;;;;;;7.32;3.88;;;;;;;;;;5044649;28;20086;-76
2022/02/23 04:04:52;;;;;;;9.13;3.00;;;;;;;;;;5047115;28;20024;-75
2022/02/23 04:07:18;;;;;;;11.38;2.80;;;;;;;;;;5053910;28;20391;-76
2022/02/23 04:09:48;;;;;;;5.88;2.30;;;;;;;;;;5067901;28;20048;-75
2022/02/23 04:12:14;;;;;;;5.18;2.25;;;;;;;;;;5047992;28;20024;-76
2022/02/23 04:14:40;;;;;;;6.90;2.47;;;;;;;;;;5045051;28;20029;-77
2022/02/23 04:17:06;;;;;;;9.48;2.85;;;;;;;;;;5046265;28;20028;-76
2022/02/23 04:19:33;;;;;;;5.18;2.85;;;;;;;;;;5038280;28;20020;-76
2022/02/23 04:21:59;;;;;;;12.88;3.60;;;;;;;;;;5045116;28;20044;-76
2022/02/23 04:24:25;;;;;;;8.85;3.35;;;;;;;;;;5042398;28;20039;-76
2022/02/23 04:26:51;;;;;;;9.80;2.45;;;;;;;;;;5043883;28;20025;-76
2022/02/23 04:29:17;;;;;;;11.15;4.20;;;;;;;;;;5045390;28;20483;-76
2022/02/23 04:31:43;;;;;;;12.00;3.30;;;;;;;;;;5046753;28;20033;-76
2022/02/23 04:34:10;;;;;;;11.02;3.35;;;;;;;;;;5044634;28;20143;-76
2022/02/23 04:36:36;;;;;;;7.82;2.50;;;;;;;;;;5048437;28;20082;-76
2022/02/23 04:39:03;;;;;;;10.48;3.47;;;;;;;;;;5057943;28;20104;-76
2022/02/23 04:41:29;;;;;;;7.22;2.10;;;;;;;;;;5045646;28;20045;-75
2022/02/23 04:43:56;;;;;;;7.65;2.35;;;;;;;;;;5058182;28;20059;-75
2022/02/23 04:46:22;;;;;;;16.10;3.47;;;;;;;;;;5052019;28;20048;-75
2022/02/23 04:48:50;;;;;;;6.15;3.22;;;;;;;;;;5052600;28;20037;-75
2022/02/23 04:51:16;;;;;;;9.30;2.70;;;;;;;;;;5044762;28;20064;-75
2022/02/23 04:53:43;;;;;;;9.50;2.65;;;;;;;;;;5048461;28;20029;-76
2022/02/23 04:56:09;;;;;;;4.00;2.30;;;;;;;;;;5050866;28;20651;-75
2022/02/23 04:58:35;;;;;;;2.95;2.28;;;;;;;;;;5047268;28;20027;-76
2022/02/23 05:01:01;;;;;;;9.43;3.10;;;;;;;;;;5053202;28;20028;-76
2022/02/23 05:03:27;;;;;;;8.65;2.58;;;;;;;;;;5048470;28;20045;-76
2022/02/23 05:05:53;;;;;;;7.25;2.03;;;;;;;;;;5052022;28;20611;-76
2022/02/23 05:08:20;;;;;;;8.82;3.15;;;;;;;;;;5046041;28;20025;-76
2022/02/23 05:10:46;;;;;;;12.70;2.88;;;;;;;;;;5046075;28;20105;-75
2022/02/23 05:13:13;;;;;;;6.38;2.33;;;;;;;;;;5046473;28;20021;-76
2022/02/23 05:15:39;;;;;;;5.50;2.13;;;;;;;;;;5042665;28;20498;-76
2022/02/23 05:18:06;;;;;;;8.20;2.80;;;;;;;;;;5047288;28;20108;-76
2022/02/23 05:20:33;;;;;;;4.05;3.45;;;;;;;;;;5046819;28;20036;-76
2022/02/23 05:22:59;;;;;;;10.80;2.55;;;;;;;;;;5047403;28;20032;-75
2022/02/23 05:25:26;;;;;;;4.82;3.65;;;;;;;;;;5052521;28;20386;-76
2022/02/23 05:27:52;;;;;;;5.95;2.17;;;;;;;;;;5043465;28;20025;-75
2022/02/23 05:30:18;;;;;;;5.25;2.33;;;;;;;;;;5051546;28;20025;-75
2022/02/23 05:32:45;;;;;;;10.48;2.50;;;;;;;;;;5050419;28;20033;-76
2022/02/23 05:35:11;;;;;;;6.35;2.50;;;;;;;;;;5065040;28;20033;-76
2022/02/23 05:37:37;;;;;;;6.72;3.35;;;;;;;;;;5048152;28;20029;-76
2022/02/23 05:40:05;;;;;;;9.70;2.58;;;;;;;;;;5055468;28;20057;-76
2022/02/23 05:42:31;;;;;;;4.32;2.20;;;;;;;;;;5054241;28;20025;-76
2022/02/23 05:44:57;;;;;;;7.47;2.78;;;;;;;;;;5049627;28;20490;-75
2022/02/23 05:47:23;;;;;;;8.52;2.95;;;;;;;;;;5049099;28;20025;-75
2022/02/23 05:49:49;;;;;;;6.90;2.25;;;;;;;;;;5048899;28;20029;-75
2022/02/23 05:52:16;;;;;;;7.47;2.60;;;;;;;;;;5043261;28;20417;-75
2022/02/23 05:54:43;;;;;;;6.03;2.20;;;;;;;;;;5045282;28;20070;-76
2022/02/23 05:57:09;;;;;;;4.50;2.13;;;;;;;;;;5048212;28;20437;-75
2022/02/23 05:59:35;;;;;;;5.15;2.70;;;;;;;;;;5037566;28;20033;-75
2022/02/23 06:02:01;;;;;;;5.78;2.33;;;;;;;;;;5049825;28;20526;-76
2022/02/23 06:04:27;;;;;;;8.70;2.83;;;;;;;;;;5044590;28;20504;-75
2022/02/23 06:06:53;;;;;;;7.82;2.70;;;;;;;;;;5046006;28;20097;-75
2022/02/23 06:09:20;;;;;;;18.20;3.90;;;;;;;;;;5044884;28;20053;-76
2022/02/23 06:11:46;;;;;;;6.60;2.85;;;;;;;;;;5048014;28;20029;-76
2022/02/23 06:14:12;;;;;;;7.18;3.22;;;;;;;;;;5050117;28;20021;-76
2022/02/23 06:16:38;;;;;;;11.02;2.80;;;;;;;;;;5046099;28;20356;-76
2022/02/23 06:19:04;;;;;;;6.00;2.83;;;;;;;;;;5050475;28;20032;-75
2022/02/23 06:21:30;;;;;;;9.75;3.03;;;;;;;;;;5048747;28;20067;-76
2022/02/23 06:23:56;;;;;;;9.95;3.35;;;;;;;;;;5046121;28;20495;-75
2022/02/23 06:26:23;;;;;;;14.80;3.30;;;;;;;;;;5042762;28;20548;-75
2022/02/23 06:28:49;;;;;;;4.18;1.90;;;;;;;;;;5045151;28;20047;-75
2022/02/23 06:31:15;;;;;;;5.30;2.92;;;;;;;;;;5044575;28;20025;-76
2022/02/23 06:33:43;;;;;;;10.80;2.22;;;;;;;;;;5043671;28;20533;-75
2022/02/23 06:36:09;;;;;;;7.18;2.50;;;;;;;;;;5042796;28;20067;-75
2022/02/23 06:38:40;;;;;;;14.40;2.85;;;;;;;;;;5042070;28;20032;-75
2022/02/23 06:41:12;;;;;;;7.18;2.22;;;;;;;;;;5045483;28;20056;-74
2022/02/23 06:43:38;;;;;;;6.07;2.67;;;;;;;;;;5047240;28;20028;-76
2022/02/23 06:46:04;;;;;;;5.28;2.40;;;;;;;;;;5043968;28;20537;-75
2022/02/23 06:48:32;;;;;;;4.70;2.05;;;;;;;;;;5044855;28;20348;-76
2022/02/23 06:50:58;;;;;;;5.93;2.50;;;;;;;;;;5056164;28;20039;-76
2022/02/23 06:53:24;;;;;;;7.30;1.95;;;;;;;;;;5047840;28;20036;-76
2022/02/23 06:55:50;;;;;;;4.47;2.25;;;;;;;;;;5051526;28;20029;-75
2022/02/23 06:58:16;;;;;;;8.60;2.70;;;;;;;;;;5044407;28;20028;-76
2022/02/23 07:00:42;;;;;;;12.75;3.22;;;;;;;;;;5053822;28;20025;-76
2022/02/23 07:03:09;;;;;;;7.63;1.83;;;;;;;;;;5047200;28;20108;-76
2022/02/23 07:05:35;;;;;;;6.97;2.25;;;;;;;;;;5040708;28;20028;-76
2022/02/23 07:08:04;;;;;;;4.75;2.17;;;;;;;;;;5046312;28;20124;-77
2022/02/23 07:10:31;;;;;;;5.95;2.60;;;;;;;;;;5038509;28;20514;-76
2022/02/23 07:12:58;;;;;;;6.95;2.35;;;;;;;;;;5043825;28;20040;-76
2022/02/23 07:15:25;;;;;;;5.63;2.20;;;;;;;;;;5051001;28;20100;-76
2022/02/23 07:17:51;;;;;;;8.48;2.10;;;;;;;;;;5049175;28;20104;-76
2022/02/23 07:20:18;;;;;;;7.55;2.28;;;;;;;;;;5049459;28;20033;-77
2022/02/23 07:22:44;;;;;;;3.58;2.15;;;;;;;;;;5047638;28;20076;-76
2022/02/23 07:25:11;;;;;;;9.50;2.63;;;;;;;;;;5044312;28;20503;-76
2022/02/23 07:27:37;;;;;;;7.93;2.10;;;;;;;;;;5043469;28;20029;-74
2022/02/23 07:30:05;;;;;;;9.20;2.80;;;;;;;;;;5049676;28;20032;-75
2022/02/23 07:32:32;;;;;;;9.55;2.50;;;;;;;;;;5044947;28;20041;-75
2022/02/23 07:34:59;;;;;;;9.45;3.05;;;;;;;;;;5047036;28;20112;-76
2022/02/23 07:37:25;;;;;;;6.28;2.55;;;;;;;;;;5045278;28;20111;-77
2022/02/23 07:40:02;;;;;;;7.22;2.40;;;;;;;;;;5067473;28;20058;-75
2022/02/23 07:42:28;;;;;;;9.15;3.90;;;;;;;;;;5059447;28;20036;-76
2022/02/23 07:44:54;;;;;;;6.53;2.33;;;;;;;;;;5045093;28;20525;-76
2022/02/23 07:47:20;;;;;;;4.85;2.13;;;;;;;;;;5047071;28;20029;-76
2022/02/23 07:49:49;;;;;;;12.23;2.90;;;;;;;;;;5046345;28;20048;-77
2022/02/23 07:52:16;;;;;;;4.22;2.38;;;;;;;;;;5051068;28;20043;-76
2022/02/23 07:54:42;;;;;;;6.15;2.67;;;;;;;;;;5046293;28;20552;-76
2022/02/23 07:57:08;;;;;;;11.75;3.17;;;;;;;;;;5050617;28;20056;-77
2022/02/23 07:59:34;;;;;;;6.40;2.22;;;;;;;;;;5044562;28;20025;-74
2022/02/23 08:02:00;;;;;;;7.45;2.05;;;;;;;;;;5046417;28;20043;-75
2022/02/23 08:04:28;;;;;;;7.65;2.50;;;;;;;;;;5042415;28;20108;-74
2022/02/23 08:06:55;;;;;;;8.88;3.10;;;;;;;;;;5043915;28;20380;-74
2022/02/23 08:09:21;;;;;;;9.50;2.40;;;;;;;;;;5037135;28;20041;-74
2022/02/23 08:11:47;;;;;;;4.30;2.10;;;;;;;;;;5042456;28;20037;-74
2022/02/23 08:14:13;;;;;;;5.80;2.20;;;;;;;;;;5040733;28;20423;-75
2022/02/23 08:19:34;;;;;;;4.15;2.20;;;;;;;;;;5047845;28;20036;-74
2022/02/23 08:22:07;;;;;;;4.10;2.22;;;;;;;;;;5063193;28;20182;-74
2022/02/23 08:24:35;;;;;;;6.70;2.40;;;;;;;;;;5044435;28;20021;-74
2022/02/23 08:27:03;;;;;;;7.38;1.88;;;;;;;;;;5048978;28;20108;-73
2022/02/23 08:29:29;;;;;;;6.68;2.08;;;;;;;;;;5042463;28;20060;-74
2022/02/23 08:31:57;;;;;;;8.70;2.05;;;;;;;;;;5049237;28;20037;-74
2022/02/23 08:34:23;;;;;;;5.38;2.10;;;;;;;;;;5036670;28;20096;-74
2022/02/23 08:36:49;;;;;;;5.30;2.00;;;;;;;;;;5034778;28;20034;-74
2022/02/23 08:39:15;;;;;;;5.38;1.95;;;;;;;;;;5056504;28;20434;-75
2022/02/23 08:41:42;;;;;;;3.05;2.13;;;;;;;;;;5046066;28;20476;-74
2022/02/23 08:44:08;;;;;;;6.53;2.10;;;;;;;;;;5040762;28;20037;-74
2022/02/23 08:46:35;;;;;;;6.15;2.10;;;;;;;;;;5040883;28;20036;-73
2022/02/23 08:49:01;;;;;;;7.03;2.60;;;;;;;;;;5041412;28;20511;-71
2022/02/23 08:51:28;;;;;;;3.97;2.00;;;;;;;;;;5043474;28;20076;-74
2022/02/23 08:53:54;;;;;;;5.63;2.20;;;;;;;;;;5050750;28;20028;-74
2022/02/23 08:56:20;;;;;;;5.85;2.10;;;;;;;;;;5045423;28;20021;-75
2022/02/23 08:58:46;;;;;;;6.57;1.83;;;;;;;;;;5058373;28;20056;-73
2022/02/23 09:01:12;;;;;;;4.57;2.10;;;;;;;;;;5037602;28;20610;-75
2022/02/23 09:03:38;;;;;;;6.85;2.38;;;;;;;;;;5048444;28;20051;-74
2022/02/23 09:06:04;;;;;;;5.10;1.90;;;;;;;;;;5044127;28;20029;-73
2022/02/23 09:08:31;;;;;;;5.68;2.25;;;;;;;;;;5038957;28;20025;-74
2022/02/23 09:10:57;;;;;;;3.28;1.95;;;;;;;;;;5037133;28;20492;-75
2022/02/23 09:13:23;;;;;;;5.32;1.98;;;;;;;;;;5038711;28;20024;-74
2022/02/23 09:15:49;;;;;;;5.47;2.28;;;;;;;;;;5037194;28;20025;-74
2022/02/23 09:18:15;;;;;;;9.43;2.75;;;;;;;;;;5041950;28;20021;-73
2022/02/23 09:20:41;;;;;;;5.45;2.22;;;;;;;;;;5047583;28;20588;-74
2022/02/23 09:23:07;;;;;;;8.15;2.78;;;;;;;;;;5050409;28;20028;-73
2022/02/23 09:25:33;;;;;;;5.75;2.20;;;;;;;;;;5063254;28;20031;-74
2022/02/23 09:27:59;;;;;;;6.28;2.25;;;;;;;;;;5046909;28;20468;-74
2022/02/23 09:30:26;;;;;;;5.05;1.85;;;;;;;;;;5050513;28;20037;-74
2022/02/23 09:32:53;;;;;;;3.33;2.00;;;;;;;;;;5050940;28;20030;-74
2022/02/23 09:35:19;;;;;;;7.57;2.25;;;;;;;;;;5050520;28;20029;-74
2022/02/23 09:37:46;;;;;;;7.50;2.17;;;;;;;;;;5050756;28;20111;-73
2022/02/23 09:40:15;;;;;;;6.28;2.75;;;;;;;;;;5050918;28;20383;-74
2022/02/23 09:42:41;;;;;;;6.20;2.00;;;;;;;;;;5054881;28;20056;-74
2022/02/23 09:45:08;;;;;;;3.90;2.10;;;;;;;;;;5053074;28;20025;-74
2022/02/23 09:47:35;;;;;;;5.20;2.15;;;;;;;;;;5049664;28;20478;-73
2022/02/23 09:50:10;;;;;;;3.97;1.92;;;;;;;;;;5064827;28;20021;-75
2022/02/23 09:52:37;;;;;;;8.40;2.22;;;;;;;;;;5072154;28;20048;-74
2022/02/23 09:55:04;;;;;;;7.82;2.53;;;;;;;;;;5056159;28;20449;-74
2022/02/23 09:57:30;;;;;;;3.72;1.92;;;;;;;;;;5063682;28;20422;-75
2022/02/23 09:59:57;;;;;;;5.97;2.60;;;;;;;;;;5054414;28;20033;-76
2022/02/23 10:02:23;;;;;;;3.97;2.05;;;;;;;;;;5062304;28;20815;-74
2022/02/23 10:04:50;;;;;;;3.65;1.77;;;;;;;;;;5050340;28;20052;-74
2022/02/23 10:07:17;;;;;;;2.65;2.20;;;;;;;;;;5065880;28;20020;-73
2022/02/23 10:09:44;;;;;;;4.60;2.10;;;;;;;;;;5048212;28;20577;-75
2022/02/23 10:12:20;;;;;;;6.18;2.80;;;;;;;;;;5047945;28;20204;-74
2022/02/23 10:14:47;;;;;;;6.55;2.25;;;;;;;;;;5060889;28;20029;-74
2022/02/23 10:17:13;;;;;;;6.53;2.28;;;;;;;;;;5049190;28;20021;-74
2022/02/23 10:19:50;;;;;;;5.85;2.10;;;;;;;;;;5042970;28;20068;-75
2022/02/23 10:22:21;;;;;;;8.68;2.08;;;;;;;;;;5052662;28;20032;-74
2022/02/23 10:24:47;;;;;;;7.80;2.47;;;;;;;;;;5064723;28;20433;-75
2022/02/23 10:27:14;;;;;;;5.53;2.03;;;;;;;;;;5048614;28;20048;-75
2022/02/23 10:29:46;;;;;;;6.03;1.90;;;;;;;;;;5057245;28;20106;-75
2022/02/23 10:32:14;;;;;;;7.57;1.95;;;;;;;;;;5061966;28;20029;-75
2022/02/23 10:34:43;;;;;;;4.43;2.67;;;;;;;;;;5062310;28;20032;-74
2022/02/23 10:37:10;;;;;;;5.68;2.10;;;;;;;;;;5060128;28;20024;-75
2022/02/23 10:40:00;;;;;;;8.60;2.33;;;;;;;;;;5055339;28;20054;-74
2022/02/23 10:42:32;;;;;;;4.25;2.30;;;;;;;;;;5048099;28;20029;-74
2022/02/23 10:44:59;;;;;;;7.10;2.38;;;;;;;;;;5051023;28;20544;-74
2022/02/23 10:47:29;;;;;;;5.82;2.10;;;;;;;;;;5053919;28;20391;-75
2022/02/23 10:50:03;;;;;;;4.10;2.00;;;;;;;;;;5072612;28;20032;-73
2022/02/23 10:52:34;;;;;;;5.90;2.00;;;;;;;;;;5048246;28;20029;-75
2022/02/23 10:55:19;;;;;;;5.97;1.88;;;;;;;;;;5051254;28;20036;-74
2022/02/23 10:57:46;;;;;;;6.85;2.55;;;;;;;;;;5043892;28;20021;-74
2022/02/23 11:00:19;;;;;;;6.88;2.72;;;;;;;;;;5055482;28;20609;-74
2022/02/23 11:02:46;;;;;;;4.80;2.08;;;;;;;;;;5050804;28;20035;-74
2022/02/23 11:05:13;;;;;;;7.65;2.40;;;;;;;;;;5051804;28;20021;-75
2022/02/23 11:07:43;;;;;;;7.40;2.58;;;;;;;;;;5046539;28;20017;-74
2022/02/23 11:10:13;;;;;;;3.42;1.92;;;;;;;;;;5045365;28;20040;-74
2022/02/23 11:12:42;;;;;;;7.13;2.20;;;;;;;;;;5047881;28;20123;-74
2022/02/23 11:15:09;;;;;;;5.97;2.40;;;;;;;;;;5053985;28;20017;-74
2022/02/23 11:17:37;;;;;;;3.97;2.13;;;;;;;;;;5052322;28;20025;-74
2022/02/23 11:20:04;;;;;;;7.22;2.40;;;;;;;;;;5051413;28;20020;-74
2022/02/23 11:22:31;;;;;;;5.22;2.03;;;;;;;;;;5064899;28;20120;-74
2022/02/23 11:24:57;;;;;;;9.00;2.75;;;;;;;;;;5065562;28;20035;-74
2022/02/23 11:27:25;;;;;;;7.55;2.40;;;;;;;;;;5053684;28;20096;-75
2022/02/23 11:30:04;;;;;;;3.70;2.30;;;;;;;;;;5048446;28;20021;-75
2022/02/23 11:32:31;;;;;;;7.22;3.33;;;;;;;;;;5042072;28;20484;-74
2022/02/23 11:34:57;;;;;;;7.53;2.70;;;;;;;;;;5065340;28;20471;-75
2022/02/23 11:37:23;;;;;;;7.40;2.10;;;;;;;;;;5050421;28;20027;-75
2022/02/23 11:39:51;;;;;;;3.47;2.00;;;;;;;;;;5053990;28;20035;-74
2022/02/23 11:42:22;;;;;;;10.38;2.50;;;;;;;;;;5048483;28;20025;-74
2022/02/23 11:44:50;;;;;;;7.43;2.67;;;;;;;;;;5067279;28;20029;-75
2022/02/23 11:47:21;;;;;;;5.78;2.15;;;;;;;;;;5048779;28;20025;-75
2022/02/23 11:49:50;;;;;;;9.65;3.13;;;;;;;;;;5051738;28;20025;-74
2022/02/23 11:52:18;;;;;;;6.80;2.10;;;;;;;;;;5049767;28;20052;-74
2022/02/23 11:54:50;;;;;;;6.30;2.28;;;;;;;;;;5052828;28;20388;-74
2022/02/23 11:57:35;;;;;;;8.60;2.78;;;;;;;;;;5054963;28;20041;-73
2022/02/23 12:00:01;;;;;;;5.80;2.85;;;;;;;;;;5040979;28;20079;-74
2022/02/23 12:02:31;;;;;;;5.60;2.15;;;;;;;;;;5047604;28;20028;-74
2022/02/23 12:04:59;;;;;;;6.00;3.00;;;;;;;;;;5044646;28;20036;-74
2022/02/23 12:07:26;;;;;;;7.38;2.63;;;;;;;;;;5048398;28;20123;-74
2022/02/23 12:09:57;;;;;;;4.68;2.65;;;;;;;;;;5058784;28;20102;-74
2022/02/23 12:12:48;;;;;;;2.67;2.00;;;;;;;;;;5058484;28;20055;-75
2022/02/23 12:15:25;;;;;;;4.47;2.30;;;;;;;;;;5044822;28;20170;-74
2022/02/23 12:18:01;;;;;;;9.07;2.78;;;;;;;;;;5048772;28;20029;-73
2022/02/23 12:20:37;;;;;;;7.50;1.77;;;;;;;;;;5044412;28;20021;-74
2022/02/23 12:23:29;;;;;;;8.57;3.53;;;;;;;;;;5044410;28;20112;-73
2022/02/23 12:26:00;;;;;;;5.32;2.80;;;;;;;;;;5048300;28;20032;-74
2022/02/23 12:28:32;;;;;;;6.90;3.00;;;;;;;;;;5048918;28;20262;-76
2022/02/23 12:31:06;;;;;;;6.97;2.92;;;;;;;;;;5047688;28;20078;-74
2022/02/23 12:33:35;;;;;;;4.80;2.65;;;;;;;;;;5062322;28;20492;-75
2022/02/23 12:36:02;;;;;;;5.53;2.35;;;;;;;;;;5049036;28;20026;-74
2022/02/23 12:38:30;;;;;;;3.97;2.00;;;;;;;;;;5046376;28;20052;-74
2022/02/23 12:40:56;;;;;;;6.95;2.80;;;;;;;;;;5048653;28;20308;-75
2022/02/23 12:43:23;;;;;;;4.18;2.20;;;;;;;;;;5046939;28;20033;-75
2022/02/23 12:45:50;;;;;;;4.05;2.17;;;;;;;;;;5063946;28;20115;-75
2022/02/23 12:48:17;;;;;;;5.78;2.28;;;;;;;;;;5049205;28;20034;-75
2022/02/23 12:50:43;;;;;;;4.45;2.40;;;;;;;;;;5050253;28;20044;-75
2022/02/23 12:53:09;;;;;;;3.90;2.00;;;;;;;;;;5047160;28;20048;-75
2022/02/23 12:55:36;;;;;;;5.85;2.92;;;;;;;;;;5068910;28;20040;-75
2022/02/23 12:58:05;;;;;;;3.38;2.00;;;;;;;;;;5066504;28;20029;-76
2022/02/23 13:00:31;;;;;;;5.05;2.50;;;;;;;;;;5048647;28;21723;-75
2022/02/23 13:03:06;;;;;;;8.45;2.30;;;;;;;;;;5051064;28;20418;-75
2022/02/23 13:05:32;;;;;;;;;;;;;;;;;;5056068;28;20024;-74
2022/02/23 13:07:58;;;;;;;6.47;2.28;;;;;;;;;;5055120;28;20070;-75
2022/02/23 13:10:24;;;;;;;6.05;2.35;;;;;;;;;;5053321;28;20037;-75
2022/02/23 13:12:52;;;;;;;7.40;2.33;;;;;;;;;;5051722;28;20052;-74
2022/02/23 13:15:18;;;;;;;10.50;2.15;;;;;;;;;;5053459;28;20032;-75
2022/02/23 13:17:44;;;;;;;7.15;2.38;;;;;;;;;;5048943;28;20339;-75
2022/02/23 13:20:11;;;;;;;4.47;2.10;;;;;;;;;;5051838;28;20037;-74
2022/02/23 13:22:37;;;;;;;6.57;2.25;;;;;;;;;;5059066;28;20033;-75
2022/02/23 13:25:03;;;;;;;5.45;2.50;;;;;;;;;;5054620;28;20060;-75
2022/02/23 13:27:32;;;;;;;5.47;2.15;;;;;;;;;;5052318;28;20029;-74
2022/02/23 13:30:01;;;;;;;7.63;2.40;;;;;;;;;;5060815;28;20029;-75
2022/02/23 13:32:34;;;;;;;9.18;2.42;;;;;;;;;;5075194;28;20029;-75
2022/02/23 13:35:02;;;;;;;6.80;2.67;;;;;;;;;;5053283;28;20029;-74
2022/02/23 13:37:28;;;;;;;8.60;2.72;;;;;;;;;;5053845;28;20031;-74
2022/02/23 13:39:58;;;;;;;5.57;2.13;;;;;;;;;;5068793;28;20029;-73
2022/02/23 13:42:36;;;;;;;4.93;2.63;;;;;;;;;;5055032;28;20086;-75
2022/02/23 13:45:13;;;;;;;9.20;3.47;;;;;;;;;;5055249;28;20032;-74
2022/02/23 13:47:40;;;;;;;6.68;2.20;;;;;;;;;;5067300;28;20500;-74
2022/02/23 13:50:06;;;;;;;6.07;2.33;;;;;;;;;;5051656;28;20523;-74
2022/02/23 13:52:36;;;;;;;8.90;2.60;;;;;;;;;;5053023;28;20406;-74
2022/02/23 13:55:23;;;;;;;6.28;2.30;;;;;;;;;;5055655;28;20100;-75
2022/02/23 13:57:57;;;;;;;7.20;2.47;;;;;;;;;;5051596;28;20029;-74
2022/02/23 14:00:29;;;;;;;4.35;2.10;;;;;;;;;;5047482;28;20332;-74
2022/02/23 14:03:13;;;;;;;5.65;2.05;;;;;;;;;;5048173;28;20483;-73
2022/02/23 14:05:41;;;;;;;6.88;2.45;;;;;;;;;;5047777;28;20540;-75
2022/02/23 14:08:09;;;;;;;10.70;2.60;;;;;;;;;;5046268;28;20032;-73
2022/02/23 14:10:36;;;;;;;5.18;2.75;;;;;;;;;;5048887;28;20090;-74
2022/02/23 14:13:07;;;;;;;5.78;2.22;;;;;;;;;;5048510;28;20028;-73
2022/02/23 14:15:34;;;;;;;9.85;2.78;;;;;;;;;;5046210;28;20502;-73
2022/02/23 14:18:19;;;;;;;5.85;2.25;;;;;;;;;;5051761;28;20025;-74
2022/02/23 14:20:46;;;;;;;6.13;2.38;;;;;;;;;;5051254;28;20032;-74
2022/02/23 14:23:16;;;;;;;6.45;2.65;;;;;;;;;;5050844;28;20029;-74
2022/02/23 14:25:59;;;;;;;7.32;2.85;;;;;;;;;;5045186;28;20029;-74
2022/02/23 14:28:37;;;;;;;5.50;2.67;;;;;;;;;;5051049;28;20029;-74
2022/02/23 14:31:21;;;;;;;7.32;2.40;;;;;;;;;;5051338;28;20119;-73
2022/02/23 14:33:48;;;;;;;10.02;2.85;;;;;;;;;;5057318;28;20025;-74
2022/02/23 14:36:14;;;;;;;8.07;2.85;;;;;;;;;;5047465;28;20044;-74
2022/02/23 14:38:40;;;;;;;6.25;2.30;;;;;;;;;;5052246;28;20307;-74
2022/02/23 14:41:07;;;;;;;4.50;2.50;;;;;;;;;;5051363;28;20037;-74
2022/02/23 14:43:33;;;;;;;6.93;2.95;;;;;;;;;;5053946;28;20070;-74
2022/02/23 14:45:59;;;;;;;9.02;3.00;;;;;;;;;;5056475;28;20040;-75